createdAt,value
2023-01-12T00:01:59.437Z,7.75
2023-01-12T00:04:30.863Z,9.43
2023-01-12T00:07:01.765Z,11.13
2023-01-12T00:09:28.603Z,8.68
2023-01-12T00:11:55.194Z,11.70
2023-01-12T00:14:21.825Z,11.60
2023-01-12T00:16:48.471Z,14.52
2023-01-12T00:19:17.390Z,18.27
2023-01-12T00:22:07.143Z,12.75
2023-01-12T00:24:36.616Z,12.13
2023-01-12T00:27:08.691Z,9.93
2023-01-12T00:29:35.992Z,16.20
2023-01-12T00:32:02.902Z,12.60
2023-01-12T00:34:30.054Z,8.88
2023-01-12T00:36:57.479Z,9.48
2023-01-12T00:39:23.967Z,12.63
2023-01-12T00:42:09.045Z,15.43
2023-01-12T00:44:54.153Z,13.35
2023-01-12T00:47:20.715Z,11.05
2023-01-12T00:49:47.451Z,9.25
2023-01-12T00:52:29.357Z,13.38
2023-01-12T00:54:57.481Z,14.15
2023-01-12T00:57:24.077Z,10.57
2023-01-12T00:59:51.682Z,8.02
2023-01-12T01:02:23.066Z,12.98
2023-01-12T01:04:50.535Z,13.65
2023-01-12T01:07:18.391Z,8.60
2023-01-12T01:09:45.076Z,12.65
2023-01-12T01:12:11.775Z,9.07
2023-01-12T01:14:40.845Z,12.40
2023-01-12T01:17:07.687Z,17.20
2023-01-12T01:19:34.239Z,11.10
2023-01-12T01:22:00.822Z,17.27
2023-01-12T01:24:27.527Z,14.35
2023-01-12T01:26:54.056Z,14.40
2023-01-12T01:29:20.777Z,9.75
2023-01-12T01:31:50.119Z,13.57
2023-01-12T01:34:16.717Z,14.50
2023-01-12T01:36:48.103Z,11.95
2023-01-12T01:39:14.618Z,11.65
2023-01-12T01:41:43.559Z,11.77
2023-01-12T01:44:29.049Z,10.13
2023-01-12T01:47:00.774Z,12.60
2023-01-12T01:49:48.630Z,10.10
2023-01-12T01:52:23.858Z,10.27
2023-01-12T01:55:01.704Z,14.45
2023-01-12T01:57:36.944Z,14.80
2023-01-12T02:00:12.758Z,11.98
2023-01-12T02:02:42.256Z,11.63
2023-01-12T02:05:09.403Z,12.38
2023-01-12T02:07:36.183Z,19.55
2023-01-12T02:10:03.880Z,14.13
2023-01-12T02:12:48.833Z,15.38
2023-01-12T02:15:34.247Z,10.30
2023-01-12T02:18:10.820Z,11.07
2023-01-12T02:21:10.337Z,11.07
2023-01-12T02:24:01.514Z,17.95
2023-01-12T02:26:47.803Z,12.75
2023-01-12T02:29:20.467Z,19.00
2023-01-12T02:32:26.396Z,11.75
2023-01-12T02:35:17.021Z,13.20
2023-01-12T02:38:08.230Z,15.23
2023-01-12T02:40:48.015Z,12.88
2023-01-12T02:43:35.177Z,17.45
2023-01-12T02:46:13.416Z,10.32
2023-01-12T02:48:51.409Z,15.07
2023-01-12T02:51:23.690Z,13.05
2023-01-12T02:53:53.825Z,14.88
2023-01-12T02:56:30.013Z,9.60
2023-01-12T02:59:02.231Z,10.52
2023-01-12T03:01:30.373Z,14.75
2023-01-12T03:04:01.979Z,12.10
2023-01-12T03:06:48.118Z,13.50
2023-01-12T03:09:17.895Z,15.88
2023-01-12T03:11:48.846Z,9.10
2023-01-12T03:14:17.421Z,11.38
2023-01-12T03:16:46.507Z,10.98
2023-01-12T03:19:21.680Z,11.77
2023-01-12T03:21:53.630Z,9.80
2023-01-12T03:24:50.621Z,9.52
2023-01-12T03:27:28.622Z,8.38
2023-01-12T03:30:04.514Z,14.35
2023-01-12T03:32:31.096Z,9.30
2023-01-12T03:34:59.160Z,11.27
2023-01-12T03:37:39.592Z,7.60
2023-01-12T03:40:29.010Z,8.57
2023-01-12T03:43:24.106Z,8.85
2023-01-12T03:45:58.776Z,6.60
2023-01-12T03:48:37.570Z,11.40
2023-01-12T03:51:14.349Z,7.65
2023-01-12T03:53:45.335Z,7.68
2023-01-12T03:56:14.051Z,11.65
2023-01-12T03:58:41.370Z,8.45
2023-01-12T04:01:08.117Z,5.97
2023-01-12T04:03:35.014Z,12.50
2023-01-12T04:06:01.568Z,5.90
2023-01-12T04:08:31.662Z,6.72
2023-01-12T04:10:58.329Z,6.93
2023-01-12T04:13:24.941Z,9.68
2023-01-12T04:15:51.724Z,8.75
2023-01-12T04:18:18.303Z,11.00
2023-01-12T04:20:46.871Z,8.43
2023-01-12T04:23:13.421Z,10.95
2023-01-12T04:25:42.264Z,6.60
2023-01-12T04:28:08.849Z,6.85
2023-01-12T04:30:38.388Z,7.22
2023-01-12T04:33:11.506Z,13.38
2023-01-12T04:35:38.211Z,9.80
2023-01-12T04:38:08.995Z,13.70
2023-01-12T04:40:35.599Z,13.50
2023-01-12T04:43:02.308Z,9.68
2023-01-12T04:45:31.632Z,9.43
2023-01-12T04:48:10.161Z,12.35
2023-01-12T04:50:38.171Z,12.27
2023-01-12T04:53:10.425Z,10.57
2023-01-12T04:55:38.199Z,8.93
2023-01-12T04:58:04.778Z,11.70
2023-01-12T05:00:34.340Z,9.98
2023-01-12T05:03:03.789Z,10.02
2023-01-12T05:05:32.490Z,7.95
2023-01-12T05:08:21.349Z,13.68
2023-01-12T05:10:55.875Z,11.98
2023-01-12T05:13:24.159Z,7.57
2023-01-12T05:15:50.702Z,6.85
2023-01-12T05:18:17.254Z,10.02
2023-01-12T05:20:43.847Z,6.45
2023-01-12T05:23:10.414Z,9.95
2023-01-12T05:25:39.353Z,8.07
2023-01-12T05:28:05.984Z,6.32
2023-01-12T05:30:34.806Z,7.97
2023-01-12T05:33:01.537Z,6.47
2023-01-12T05:35:30.163Z,8.07
2023-01-12T05:37:59.058Z,11.80
2023-01-12T05:40:25.626Z,10.70
2023-01-12T05:43:11.284Z,6.88
2023-01-12T05:45:38.106Z,8.93
2023-01-12T05:48:05.320Z,8.68
2023-01-12T05:50:33.998Z,8.02
2023-01-12T05:53:02.796Z,4.15
2023-01-12T05:55:29.609Z,7.07
2023-01-12T05:57:56.174Z,7.45
2023-01-12T06:00:23.021Z,7.60
2023-01-12T06:02:51.778Z,7.68
2023-01-12T06:05:21.968Z,6.65
2023-01-12T06:07:48.547Z,7.30
2023-01-12T06:10:15.228Z,4.95
2023-01-12T06:13:00.230Z,4.05
2023-01-12T06:15:26.836Z,6.95
2023-01-12T06:17:53.566Z,5.78
2023-01-12T06:20:22.453Z,3.72
2023-01-12T06:22:51.239Z,4.78
2023-01-12T06:25:20.255Z,5.68
2023-01-12T06:27:46.826Z,3.40
2023-01-12T06:30:13.689Z,5.47
2023-01-12T06:32:42.559Z,5.40
2023-01-12T06:35:18.526Z,3.70
2023-01-12T06:37:52.905Z,4.43
2023-01-12T06:40:19.477Z,5.03
2023-01-12T06:42:48.348Z,4.82
2023-01-12T06:45:14.932Z,2.17
2023-01-12T06:47:46.058Z,4.50
2023-01-12T06:50:13.278Z,3.78
2023-01-12T06:52:42.062Z,3.25
2023-01-12T06:55:09.070Z,4.65
2023-01-12T06:57:35.650Z,4.97
2023-01-12T07:00:05.114Z,5.05
2023-01-12T07:02:33.964Z,3.25
2023-01-12T07:05:05.323Z,1.60
2023-01-12T07:07:34.428Z,4.55
2023-01-12T07:10:01.003Z,3.60
2023-01-12T07:12:27.601Z,3.75
2023-01-12T07:14:56.160Z,5.18
2023-01-12T07:17:22.723Z,2.58
2023-01-12T07:19:49.290Z,2.88
2023-01-12T07:22:18.015Z,4.07
2023-01-12T07:24:44.565Z,5.72
2023-01-12T07:27:11.124Z,3.80
2023-01-12T07:29:37.658Z,3.40
2023-01-12T07:32:04.674Z,1.70
2023-01-12T07:34:33.411Z,3.85
2023-01-12T07:36:59.929Z,1.83
2023-01-12T07:39:26.527Z,3.22
2023-01-12T07:42:14.047Z,3.50
2023-01-12T07:44:42.785Z,2.53
2023-01-12T07:47:09.304Z,3.00
2023-01-12T07:49:36.949Z,6.15
2023-01-12T07:52:06.238Z,3.97
2023-01-12T07:54:33.774Z,4.10
2023-01-12T07:57:02.759Z,4.03
2023-01-12T07:59:29.371Z,4.57
2023-01-12T08:01:55.965Z,2.90
2023-01-12T08:04:23.046Z,1.63
2023-01-12T08:06:49.911Z,2.95
2023-01-12T08:09:23.970Z,2.70
2023-01-12T08:11:50.571Z,2.90
2023-01-12T08:14:28.701Z,2.65
2023-01-12T08:17:01.472Z,4.95
2023-01-12T08:19:38.566Z,3.53
2023-01-12T08:22:10.135Z,3.38
2023-01-12T08:24:46.429Z,9.43
2023-01-12T08:27:13.083Z,5.60
2023-01-12T08:29:47.175Z,4.43
2023-01-12T08:32:17.992Z,2.47
2023-01-12T08:34:48.824Z,4.88
2023-01-12T08:37:19.611Z,5.55
2023-01-12T08:39:47.282Z,1.92
2023-01-12T08:42:13.914Z,3.42
2023-01-12T08:44:40.643Z,1.67
2023-01-12T08:47:16.204Z,1.73
2023-01-12T08:49:46.386Z,2.55
2023-01-12T08:52:16.654Z,1.50
2023-01-12T08:54:43.614Z,2.83
2023-01-12T08:57:10.360Z,3.42
2023-01-12T08:59:36.973Z,4.13
2023-01-12T09:02:04.400Z,1.58
2023-01-12T09:04:33.376Z,3.10
2023-01-12T09:07:00.270Z,1.52
2023-01-12T09:09:27.039Z,2.17
2023-01-12T09:11:55.915Z,2.05
2023-01-12T09:14:22.515Z,3.10
2023-01-12T09:16:49.645Z,1.73
2023-01-12T09:19:16.255Z,3.80
2023-01-12T09:21:43.637Z,4.40
2023-01-12T09:24:11.843Z,4.15
2023-01-12T09:26:40.417Z,1.05
2023-01-12T09:29:07.956Z,2.45
2023-01-12T09:31:36.708Z,2.33
2023-01-12T09:34:03.498Z,2.28
2023-01-12T09:36:34.975Z,2.08
2023-01-12T09:39:02.114Z,1.77
2023-01-12T09:41:50.130Z,1.58
2023-01-12T09:44:38.067Z,1.40
2023-01-12T09:47:12.791Z,1.80
2023-01-12T09:49:45.539Z,1.13
2023-01-12T09:52:26.421Z,1.33
2023-01-12T09:54:53.360Z,3.30
2023-01-12T09:57:57.608Z,1.58
2023-01-12T10:00:28.146Z,1.63
2023-01-12T10:03:06.234Z,1.10
2023-01-12T10:05:47.360Z,1.27
2023-01-12T10:08:41.364Z,1.08
2023-01-12T10:11:17.438Z,2.75
2023-01-12T10:14:05.947Z,2.45
2023-01-12T10:16:57.306Z,1.35
2023-01-12T10:19:50.785Z,1.67
2023-01-12T10:22:39.009Z,0.80
2023-01-12T10:25:14.891Z,1.45
2023-01-12T10:27:44.502Z,16.27
2023-01-12T10:30:17.355Z,3.85
2023-01-12T10:32:44.700Z,3.25
2023-01-12T10:35:17.334Z,5.72
2023-01-12T10:37:52.481Z,4.75
2023-01-12T10:40:30.142Z,1.90
2023-01-12T10:43:41.515Z,1.42
2023-01-12T10:46:17.682Z,2.38
2023-01-12T10:49:15.224Z,1.13
2023-01-12T10:52:02.956Z,0.63
2023-01-12T10:54:32.738Z,0.80
2023-01-12T10:57:22.021Z,0.85
2023-01-12T10:59:59.944Z,0.82
2023-01-12T11:02:43.492Z,0.85
2023-01-12T11:05:37.464Z,0.85
2023-01-12T11:08:26.179Z,4.60
2023-01-12T11:10:52.993Z,5.68
2023-01-12T11:13:25.268Z,2.63
2023-01-12T11:16:21.416Z,0.80
2023-01-12T11:19:17.599Z,1.83
2023-01-12T11:21:53.947Z,2.55
2023-01-12T11:24:35.439Z,0.82
2023-01-12T11:27:11.603Z,0.95
2023-01-12T11:29:55.844Z,2.08
2023-01-12T11:32:30.712Z,1.77
2023-01-12T11:35:10.176Z,2.55
2023-01-12T11:37:42.663Z,2.17
2023-01-12T11:40:25.798Z,3.88
2023-01-12T11:43:13.452Z,1.40
2023-01-12T11:45:52.482Z,2.28
2023-01-12T11:48:30.516Z,2.95
2023-01-12T11:51:01.115Z,0.80
2023-01-12T11:53:28.074Z,2.03
2023-01-12T11:56:01.106Z,2.08
2023-01-12T11:58:36.814Z,2.13
2023-01-12T12:01:36.677Z,4.50
2023-01-12T12:04:41.858Z,5.88
2023-01-12T12:07:35.745Z,2.05
2023-01-12T12:10:17.568Z,4.72
2023-01-12T12:13:02.817Z,1.30
2023-01-12T12:15:48.042Z,1.73
2023-01-12T12:18:23.424Z,5.72
2023-01-12T12:21:30.225Z,17.42
2023-01-12T12:24:29.000Z,1.90
2023-01-12T12:26:58.405Z,2.03
2023-01-12T12:30:01.622Z,5.22
2023-01-12T12:32:45.195Z,11.02
2023-01-12T12:35:33.142Z,6.72
2023-01-12T12:38:22.743Z,3.45
2023-01-12T12:41:14.081Z,2.42
2023-01-12T12:43:59.595Z,3.00
2023-01-12T12:46:47.759Z,1.90
2023-01-12T12:49:23.741Z,1.48
2023-01-12T12:51:51.601Z,1.95
2023-01-12T12:54:20.447Z,1.98
2023-01-12T12:56:48.673Z,2.33
2023-01-12T12:59:33.654Z,1.45
2023-01-12T13:02:02.117Z,5.47
2023-01-12T13:04:44.068Z,2.75
2023-01-12T13:07:19.942Z,1.27
2023-01-12T13:09:48.154Z,2.38
2023-01-12T13:12:33.976Z,1.92
2023-01-12T13:15:22.920Z,6.82
2023-01-12T13:17:52.874Z,1.08
2023-01-12T13:20:26.007Z,3.80
2023-01-12T13:22:56.690Z,2.60
2023-01-12T13:25:23.871Z,1.23
2023-01-12T13:27:59.939Z,1.88
2023-01-12T13:30:26.557Z,1.75
2023-01-12T13:32:53.038Z,0.90
2023-01-12T13:35:27.391Z,1.55
2023-01-12T13:38:12.099Z,2.05
2023-01-12T13:40:38.869Z,1.50
2023-01-12T13:43:31.011Z,2.63
2023-01-12T13:46:09.590Z,2.55
2023-01-12T13:48:38.659Z,2.75
2023-01-12T13:51:12.492Z,1.33
2023-01-12T13:53:39.123Z,0.80
2023-01-12T13:56:08.182Z,1.17
2023-01-12T13:58:43.508Z,3.05
2023-01-12T14:01:27.402Z,1.40
2023-01-12T14:04:03.217Z,1.35
2023-01-12T14:06:50.002Z,1.00
2023-01-12T14:09:42.777Z,1.00
2023-01-12T14:12:50.520Z,2.42
2023-01-12T14:15:43.863Z,1.35
2023-01-12T14:18:16.728Z,1.55
2023-01-12T14:20:49.082Z,1.10
2023-01-12T14:23:19.150Z,0.93
2023-01-12T14:25:47.874Z,1.65
2023-01-12T14:28:19.764Z,0.70
2023-01-12T14:30:52.454Z,1.20
2023-01-12T14:33:23.672Z,1.83
2023-01-12T14:35:55.300Z,1.42
2023-01-12T14:38:27.802Z,1.20
2023-01-12T14:41:27.685Z,1.20
2023-01-12T14:44:13.740Z,1.17
2023-01-12T14:46:49.926Z,1.50
2023-01-12T14:49:31.436Z,1.30
2023-01-12T14:52:00.017Z,2.78
2023-01-12T14:54:31.987Z,3.03
2023-01-12T14:57:09.039Z,1.73
2023-01-12T14:59:46.426Z,2.03
2023-01-12T15:02:19.363Z,1.77
2023-01-12T15:05:25.582Z,1.25
2023-01-12T15:08:02.119Z,0.80
2023-01-12T15:10:35.843Z,2.67
2023-01-12T15:13:21.355Z,1.83
2023-01-12T15:16:06.738Z,1.50
2023-01-12T15:18:53.872Z,3.90
2023-01-12T15:21:40.172Z,2.40
2023-01-12T15:24:54.988Z,2.20
2023-01-12T15:27:23.179Z,1.20
2023-01-12T15:29:49.932Z,2.05
2023-01-12T15:32:27.596Z,2.10
2023-01-12T15:34:59.829Z,1.25
2023-01-12T15:37:28.662Z,1.15
2023-01-12T15:40:01.351Z,1.13
2023-01-12T15:42:30.977Z,2.78
2023-01-12T15:44:57.523Z,1.52
2023-01-12T15:47:24.119Z,3.20
2023-01-12T15:49:53.281Z,1.25
2023-01-12T15:52:27.223Z,1.23
2023-01-12T15:54:54.033Z,1.27
2023-01-12T15:57:23.653Z,1.77
2023-01-12T15:59:50.220Z,1.58
2023-01-12T16:02:25.931Z,1.77
2023-01-12T16:04:52.893Z,1.48
2023-01-12T16:07:19.505Z,2.47
2023-01-12T16:09:47.722Z,2.63
2023-01-12T16:12:18.086Z,1.70
2023-01-12T16:14:46.945Z,1.95
2023-01-12T16:17:15.962Z,1.48
2023-01-12T16:19:42.620Z,3.45
2023-01-12T16:22:14.112Z,2.03
2023-01-12T16:24:41.001Z,1.63
2023-01-12T16:27:07.985Z,1.98
2023-01-12T16:29:34.679Z,2.00
2023-01-12T16:32:01.266Z,2.92
2023-01-12T16:34:27.886Z,3.75
2023-01-12T16:36:54.625Z,3.72
2023-01-12T16:39:24.827Z,1.98
2023-01-12T16:41:53.310Z,1.38
2023-01-12T16:44:19.883Z,4.15
2023-01-12T16:46:48.688Z,2.28
2023-01-12T16:49:15.280Z,1.70
2023-01-12T16:51:44.150Z,1.48
2023-01-12T16:54:10.687Z,1.23
2023-01-12T16:56:39.926Z,2.47
2023-01-12T16:59:08.025Z,3.20
2023-01-12T17:01:35.633Z,3.47
2023-01-12T17:04:02.549Z,1.70
2023-01-12T17:06:30.320Z,3.72
2023-01-12T17:09:04.049Z,3.33
2023-01-12T17:11:30.913Z,1.15
2023-01-12T17:13:58.299Z,1.80
2023-01-12T17:16:30.845Z,4.40
2023-01-12T17:18:57.510Z,1.70
2023-01-12T17:21:24.626Z,1.75
2023-01-12T17:23:52.385Z,1.73
2023-01-12T17:26:19.241Z,2.78
2023-01-12T17:28:50.523Z,2.15
2023-01-12T17:31:18.789Z,2.00
2023-01-12T17:33:46.552Z,2.28
2023-01-12T17:36:13.401Z,3.85
2023-01-12T17:38:40.315Z,2.20
2023-01-12T17:41:31.110Z,5.30
2023-01-12T17:43:58.315Z,3.10
2023-01-12T17:46:24.880Z,4.88
2023-01-12T17:48:51.507Z,2.97
2023-01-12T17:51:20.364Z,3.85
2023-01-12T17:53:46.891Z,3.03
2023-01-12T17:56:13.813Z,3.00
2023-01-12T17:58:42.721Z,5.63
2023-01-12T18:01:13.930Z,1.90
2023-01-12T18:03:40.574Z,3.78
2023-01-12T18:06:15.119Z,5.45
2023-01-12T18:08:49.663Z,2.22
2023-01-12T18:11:16.865Z,4.00
2023-01-12T18:13:44.199Z,1.80
2023-01-12T18:16:13.267Z,2.70
2023-01-12T18:18:42.040Z,4.57
2023-01-12T18:21:14.026Z,2.65
2023-01-12T18:23:43.086Z,2.90
2023-01-12T18:26:15.022Z,4.45
2023-01-12T18:28:41.847Z,2.50
2023-01-12T18:31:11.193Z,5.10
2023-01-12T18:33:37.958Z,2.63
2023-01-12T18:36:14.044Z,2.72
2023-01-12T18:38:43.481Z,3.40
2023-01-12T18:41:28.724Z,2.72
2023-01-12T18:43:55.506Z,3.95
2023-01-12T18:46:42.062Z,3.20
2023-01-12T18:49:10.835Z,4.60
2023-01-12T18:51:55.977Z,3.55
2023-01-12T18:54:22.645Z,6.45
2023-01-12T18:56:49.998Z,4.05
2023-01-12T18:59:16.966Z,3.25
2023-01-12T19:01:43.748Z,3.60
2023-01-12T19:04:15.033Z,3.67
2023-01-12T19:06:41.592Z,3.42
2023-01-12T19:09:26.657Z,5.45
2023-01-12T19:11:53.201Z,3.55
2023-01-12T19:14:38.485Z,4.30
2023-01-12T19:17:23.812Z,4.90
2023-01-12T19:19:50.578Z,5.63
2023-01-12T19:22:35.760Z,5.68
2023-01-12T19:25:20.908Z,4.00
2023-01-12T19:28:06.028Z,3.03
2023-01-12T19:30:34.360Z,5.30
2023-01-12T19:33:11.621Z,3.75
2023-01-12T19:35:41.833Z,3.95
2023-01-12T19:38:09.301Z,2.63
2023-01-12T19:40:49.073Z,5.18
2023-01-12T19:43:21.076Z,3.60
2023-01-12T19:45:55.598Z,5.13
2023-01-12T19:48:25.072Z,3.80
2023-01-12T19:50:53.011Z,5.97
2023-01-12T19:53:26.086Z,5.05
2023-01-12T19:55:52.932Z,3.47
2023-01-12T19:58:22.069Z,5.25
2023-01-12T20:00:50.076Z,6.35
2023-01-12T20:03:22.018Z,3.60
2023-01-12T20:05:51.367Z,4.63
2023-01-12T20:08:19.816Z,4.35
2023-01-12T20:10:46.607Z,3.58
2023-01-12T20:13:14.264Z,6.05
2023-01-12T20:15:43.045Z,3.00
2023-01-12T20:18:09.937Z,6.47
2023-01-12T20:20:36.555Z,3.28
2023-01-12T20:23:03.261Z,2.47
2023-01-12T20:25:30.082Z,2.63
2023-01-12T20:27:57.641Z,2.45
2023-01-12T20:30:37.419Z,3.55
2023-01-12T20:33:07.432Z,3.47
2023-01-12T20:35:35.277Z,4.30
2023-01-12T20:38:04.095Z,2.35
2023-01-12T20:40:30.814Z,2.53
2023-01-12T20:42:57.426Z,7.07
2023-01-12T20:45:24.308Z,4.05
2023-01-12T20:47:50.839Z,2.55
2023-01-12T20:50:18.834Z,3.20
2023-01-12T20:52:48.176Z,4.38
2023-01-12T20:55:15.309Z,2.65
2023-01-12T20:57:41.992Z,4.13
2023-01-12T21:00:13.293Z,3.88
2023-01-12T21:02:44.699Z,3.30
2023-01-12T21:05:11.299Z,3.08
2023-01-12T21:07:37.873Z,6.85
2023-01-12T21:10:09.210Z,2.67
2023-01-12T21:12:37.977Z,2.53
2023-01-12T21:15:05.014Z,3.55
2023-01-12T21:17:31.721Z,4.43
2023-01-12T21:19:58.318Z,3.25
2023-01-12T21:22:27.100Z,3.00
2023-01-12T21:24:53.739Z,3.10
2023-01-12T21:27:20.363Z,2.55
2023-01-12T21:29:49.245Z,2.60
2023-01-12T21:32:15.929Z,1.70
2023-01-12T21:34:42.471Z,5.93
2023-01-12T21:37:09.066Z,3.28
2023-01-12T21:39:35.617Z,2.33
2023-01-12T21:42:20.744Z,2.83
2023-01-12T21:44:47.274Z,5.47
2023-01-12T21:47:16.183Z,5.70
2023-01-12T21:49:42.731Z,2.85
2023-01-12T21:52:09.247Z,2.53
2023-01-12T21:54:38.183Z,3.85
2023-01-12T21:57:07.573Z,3.47
2023-01-12T21:59:34.148Z,3.55
2023-01-12T22:02:01.043Z,3.22
2023-01-12T22:04:27.748Z,2.42
2023-01-12T22:06:54.321Z,1.98
2023-01-12T22:09:21.124Z,3.40
2023-01-12T22:11:47.682Z,3.03
2023-01-12T22:14:14.227Z,3.90
2023-01-12T22:16:42.979Z,1.98
2023-01-12T22:19:12.016Z,2.92
2023-01-12T22:21:38.587Z,2.05
2023-01-12T22:24:07.765Z,3.55
2023-01-12T22:26:37.303Z,4.50
2023-01-12T22:29:03.904Z,4.10
2023-01-12T22:31:30.479Z,5.22
2023-01-12T22:34:05.505Z,2.97
2023-01-12T22:36:35.002Z,3.17
2023-01-12T22:39:01.927Z,4.20
2023-01-12T22:41:28.796Z,5.30
2023-01-12T22:43:55.580Z,7.63
2023-01-12T22:46:24.516Z,5.97
2023-01-12T22:48:55.424Z,5.60
2023-01-12T22:51:24.926Z,8.20
2023-01-12T22:53:55.656Z,6.50
2023-01-12T22:56:22.955Z,4.63
2023-01-12T22:58:51.697Z,5.78
2023-01-12T23:01:20.047Z,6.65
2023-01-12T23:03:48.157Z,5.10
2023-01-12T23:06:17.375Z,10.90
2023-01-12T23:08:44.925Z,5.70
2023-01-12T23:11:12.758Z,6.72
2023-01-12T23:13:41.115Z,5.50
2023-01-12T23:16:09.836Z,9.30
2023-01-12T23:18:39.063Z,10.77
2023-01-12T23:21:27.823Z,9.50
2023-01-12T23:23:58.703Z,10.70
2023-01-12T23:26:31.617Z,11.57
2023-01-12T23:29:00.421Z,16.40
2023-01-12T23:31:30.618Z,10.77
2023-01-12T23:33:59.455Z,17.55
2023-01-12T23:36:28.160Z,15.18
2023-01-12T23:38:59.535Z,15.07
2023-01-12T23:41:30.152Z,15.55
2023-01-12T23:44:01.215Z,22.23
2023-01-12T23:46:30.730Z,15.25
2023-01-12T23:48:57.860Z,22.80
2023-01-12T23:51:26.655Z,17.55
2023-01-12T23:53:54.454Z,18.45
2023-01-12T23:56:23.570Z,14.85
2023-01-12T23:58:50.181Z,16.27
